CheckWX is a tool to help pilots better visualize weather data.  It is not intended as a substitute for an official pre-flight weather briefing.

12:31:56 UTC

49A METAR
Gilmer County Airport
Ellijay, Georgia, USA
Current

17 mins ago

K49A 131215Z AUTO 07007KT 10SM DZ BKN018 OVC026 07/05 A3012 RMK AO2 T00650047
Observed
Dec-13 @ 12:15 UTC
Wind
  • 070° at 7 KTS
Visibility
10 SM
Flight Rules
MVFR
Conditions
Drizzle
Cloud Levels
  • Broken at 1,800' AGL
  • Overcast at 2,600' AGL
Temperature
C / 45°F
Dewpoint
C / 41°F
Humidity
87%
Altimeter
30.12" Hg
Pressure
1020.02 hPa
Previous

37 mins ago

K49A 131155Z AUTO 07006KT 10SM SCT018 OVC026 07/05 A3013 RMK AO2 7//// T00650045 10065 20037
Observed
Dec-13 @ 11:55 UTC
Wind
  • 070° at 6 KTS
Visibility
10 SM
Flight Rules
MVFR
Cloud Levels
  • Scattered at 1,800' AGL
  • Overcast at 2,600' AGL
Temperature
C / 45°F
Dewpoint
C / 41°F
Humidity
87%
Altimeter
30.13" Hg
Pressure
1020.32 hPa
Previous

57 mins ago

K49A 131135Z AUTO 07006KT 10SM OVC026 06/05 A3014 RMK AO2 T00620045
Observed
Dec-13 @ 11:35 UTC
Wind
  • 070° at 6 KTS
Visibility
10 SM
Flight Rules
MVFR
Cloud Levels
  • Overcast at 2,600' AGL
Temperature
C / 43°F
Dewpoint
C / 41°F
Humidity
93%
Altimeter
30.14" Hg
Pressure
1020.62 hPa